createdAt,value
2019-01-26T10:18:01.338Z,28.90
2019-01-26T10:20:35.568Z,29.00
2019-01-26T10:23:03.843Z,29.10
2019-01-26T10:25:32.156Z,29.10
2019-01-26T11:00:38.794Z,32.20
2019-01-26T11:03:07.954Z,36.00
2019-01-26T11:05:36.238Z,37.90
2019-01-26T11:08:04.503Z,39.60
2019-01-26T11:10:32.785Z,41.10
2019-01-26T11:13:01.041Z,43.60
2019-01-26T11:15:29.316Z,44.60
2019-01-26T11:17:57.575Z,45.00
2019-01-26T11:20:25.869Z,48.00
2019-01-26T11:22:54.126Z,49.30
2019-01-26T11:25:22.408Z,49.60
2019-01-26T11:27:50.676Z,50.40
2019-01-26T11:30:20.213Z,52.10
2019-01-26T11:32:48.557Z,51.10
2019-01-26T11:35:37.855Z,52.50
2019-01-26T11:38:06.268Z,54.00
2019-01-26T11:40:34.562Z,53.00
2019-01-26T11:43:02.858Z,53.50
2019-01-26T11:48:31.755Z,54.60
2019-01-26T11:51:01.658Z,55.60
2019-01-26T11:53:30.018Z,55.10
2019-01-26T11:56:05.751Z,56.20
2019-01-26T11:58:34.177Z,55.90
2019-01-26T12:01:20.177Z,55.90
2019-01-26T12:04:02.177Z,56.80
2019-01-26T12:06:32.083Z,56.10
2019-01-26T12:09:00.358Z,56.70
2019-01-26T12:11:28.619Z,56.80
2019-01-26T12:13:56.896Z,57.50
2019-01-26T12:16:27.032Z,57.60
2019-01-26T12:18:55.272Z,57.30
2019-01-26T12:21:23.549Z,58.20
2019-01-26T12:23:51.807Z,58.10
2019-01-26T12:26:20.088Z,59.30
2019-01-26T12:28:48.420Z,58.30
2019-01-26T12:31:16.682Z,59.00
2019-01-26T12:33:44.934Z,58.90
2019-01-26T12:36:13.203Z,59.30
2019-01-26T12:38:41.485Z,58.90
2019-01-26T12:41:09.830Z,58.80
2019-01-26T12:43:38.083Z,59.00
2019-01-26T12:46:06.359Z,59.30
2019-01-26T12:48:54.094Z,59.30
2019-01-26T12:51:22.344Z,59.20
2019-01-26T12:53:50.614Z,59.80
2019-01-26T12:56:19.042Z,59.80
2019-01-26T12:58:47.308Z,60.80
2019-01-26T13:01:15.563Z,60.60
2019-01-26T13:03:43.850Z,60.90
2019-01-26T13:06:12.090Z,61.30
2019-01-26T13:08:40.367Z,60.60
2019-01-26T13:11:11.879Z,60.90
2019-01-26T13:13:40.410Z,61.30
2019-01-26T13:16:08.686Z,62.20
2019-01-26T13:18:36.929Z,62.70
2019-01-26T13:21:05.195Z,62.30
2019-01-26T13:23:33.455Z,62.60
2019-01-26T13:26:01.733Z,64.00
2019-01-26T13:28:29.983Z,63.90
2019-01-26T13:30:58.263Z,64.00
2019-01-26T13:33:26.541Z,63.40
2019-01-26T13:35:54.839Z,63.90
2019-01-26T13:38:23.109Z,64.90
2019-01-26T13:40:52.237Z,65.00
2019-01-26T13:43:20.495Z,64.80
2019-01-26T13:45:48.755Z,65.20
2019-01-26T13:48:17.024Z,65.20
2019-01-26T13:50:45.282Z,66.70
2019-01-26T13:53:13.542Z,66.90
2019-01-26T13:55:41.799Z,66.80
2019-01-26T13:58:10.310Z,66.90
2019-01-26T14:00:38.614Z,67.10
2019-01-26T14:03:06.951Z,66.60
2019-01-26T14:05:35.218Z,67.60
2019-01-26T14:08:03.534Z,67.80
2019-01-26T14:10:31.791Z,68.30
2019-01-26T14:13:00.050Z,67.70
2019-01-26T14:15:28.363Z,69.80
2019-01-26T14:17:56.659Z,69.80
2019-01-26T14:20:26.375Z,69.40
2019-01-26T14:22:54.643Z,70.20
2019-01-26T14:25:22.981Z,70.00
2019-01-26T14:27:51.242Z,69.80
2019-01-26T14:30:34.147Z,70.10
2019-01-26T14:33:02.538Z,70.20
2019-01-26T14:35:30.802Z,70.20
2019-01-26T14:37:59.051Z,70.30
2019-01-26T14:40:27.328Z,70.50
2019-01-26T14:42:55.595Z,70.80
2019-01-26T14:45:23.851Z,71.10
2019-01-26T14:47:52.108Z,71.00
2019-01-26T14:50:20.399Z,71.20
2019-01-26T14:52:48.722Z,71.50
2019-01-26T14:55:20.005Z,71.70
2019-01-26T14:57:47.575Z,72.10
2019-01-26T15:00:19.242Z,71.60
2019-01-26T15:02:47.516Z,71.90
2019-01-26T15:05:15.780Z,72.70
2019-01-26T15:07:44.051Z,73.00
2019-01-26T15:10:12.545Z,73.40
2019-01-26T15:12:40.814Z,73.70
2019-01-26T15:15:12.292Z,73.80
2019-01-26T15:17:40.544Z,73.90
2019-01-26T15:20:12.111Z,74.10
2019-01-26T15:22:40.374Z,74.30
2019-01-26T15:25:09.091Z,74.40
2019-01-26T15:27:37.339Z,74.40
2019-01-26T15:30:11.839Z,74.50
2019-01-26T15:32:40.103Z,74.60
2019-01-26T15:35:08.407Z,74.80
2019-01-26T15:37:36.702Z,74.90
2019-01-26T15:40:08.420Z,75.10
2019-01-26T15:42:36.695Z,75.10
2019-01-26T15:45:11.423Z,75.10
2019-01-26T15:47:39.740Z,75.30
2019-01-26T15:50:13.135Z,75.30
2019-01-26T15:52:40.929Z,75.40
2019-01-26T15:55:12.512Z,75.90
2019-01-26T15:57:40.784Z,75.80
2019-01-26T16:00:17.623Z,75.90
2019-01-26T16:02:45.890Z,76.10
2019-01-26T16:05:14.166Z,76.40
2019-01-26T16:07:42.448Z,76.50
2019-01-26T16:10:16.099Z,76.60
2019-01-26T16:13:03.786Z,76.90
2019-01-26T16:15:37.181Z,76.80
2019-01-26T16:18:08.288Z,77.00
2019-01-26T16:20:36.648Z,77.20
2019-01-26T16:23:09.446Z,77.10
2019-01-26T16:25:34.975Z,77.40
2019-01-26T16:28:03.236Z,77.60
2019-01-26T16:30:32.546Z,77.90
2019-01-26T16:33:00.799Z,77.90
2019-01-26T16:35:29.074Z,78.00
2019-01-26T16:37:57.331Z,78.20
2019-01-26T16:40:30.499Z,78.20
2019-01-26T16:42:58.757Z,78.20
2019-01-26T16:45:31.796Z,78.50
2019-01-26T16:48:00.049Z,78.40
2019-01-26T16:50:29.963Z,78.60
2019-01-26T16:53:17.675Z,78.70
2019-01-26T16:55:45.927Z,78.80
2019-01-26T16:58:14.205Z,78.70
2019-01-26T17:00:44.829Z,78.70
2019-01-26T17:03:13.174Z,79.00
2019-01-26T17:05:41.442Z,79.30
2019-01-26T17:08:10.746Z,79.10
2019-01-26T17:10:39.000Z,79.50
2019-01-26T17:13:07.295Z,79.40
2019-01-26T17:15:35.566Z,79.60
2019-01-26T17:18:04.295Z,79.50
2019-01-26T17:20:35.376Z,79.70
2019-01-26T17:23:04.092Z,79.70
2019-01-26T17:25:32.369Z,79.80
2019-01-26T17:28:00.640Z,79.80
2019-01-26T17:30:34.220Z,80.20
2019-01-26T17:33:07.397Z,80.10
2019-01-26T17:35:32.471Z,79.90
2019-01-26T17:38:00.738Z,80.10
2019-01-26T17:40:29.006Z,80.00
2019-01-26T17:42:57.271Z,80.40
2019-01-26T17:45:25.829Z,80.20
2019-01-26T17:47:54.257Z,80.40
2019-01-26T17:50:24.643Z,80.40
2019-01-26T17:52:52.930Z,80.40
2019-01-26T17:55:21.191Z,80.20
2019-01-26T17:57:49.463Z,80.30
2019-01-26T18:00:30.817Z,80.30
2019-01-26T18:02:59.256Z,80.30
2019-01-26T18:05:27.522Z,80.40
2019-01-26T18:07:55.856Z,80.40
2019-01-26T18:10:25.814Z,80.50
2019-01-26T18:12:54.091Z,80.40
2019-01-26T18:15:22.358Z,80.50
2019-01-26T18:17:50.645Z,80.40
2019-01-26T18:20:27.595Z,80.60
2019-01-26T18:22:55.873Z,80.40
2019-01-26T18:25:25.770Z,80.40
2019-01-26T18:27:54.045Z,80.50
2019-01-26T18:30:37.292Z,80.40
2019-01-26T18:33:05.615Z,80.40
2019-01-26T18:35:33.872Z,80.40
2019-01-26T18:38:02.131Z,80.40
2019-01-26T18:40:30.555Z,80.60
2019-01-26T18:42:58.805Z,80.50
2019-01-26T18:45:28.875Z,80.60
2019-01-26T18:47:57.162Z,80.60
2019-01-26T18:50:28.630Z,80.40
2019-01-26T18:52:56.906Z,80.60
2019-01-26T18:55:25.206Z,80.80
2019-01-26T18:57:53.470Z,80.60
2019-01-26T19:00:24.526Z,80.60
2019-01-26T19:02:56.074Z,80.50
2019-01-26T19:05:24.975Z,80.60
2019-01-26T19:07:53.252Z,80.60
2019-01-26T19:10:21.516Z,80.50
2019-01-26T19:12:49.803Z,80.80
2019-01-26T19:15:22.984Z,80.90
2019-01-26T19:18:10.736Z,81.00
2019-01-26T19:20:39.046Z,81.10
2019-01-26T19:23:07.314Z,80.90
2019-01-26T19:25:35.580Z,80.90
2019-01-26T19:28:03.858Z,81.10
2019-01-26T19:30:32.418Z,81.10
2019-01-26T19:33:00.773Z,81.00
2019-01-26T19:35:29.053Z,81.00
2019-01-26T19:37:57.330Z,80.90
2019-01-26T19:40:25.592Z,81.30
2019-01-26T19:42:53.872Z,81.30
2019-01-26T19:45:23.879Z,81.10
2019-01-26T19:47:52.248Z,81.10
2019-01-26T19:50:22.438Z,81.10
2019-01-26T19:52:50.716Z,81.10
2019-01-26T19:55:21.038Z,81.20
2019-01-26T19:57:49.306Z,81.30
2019-01-26T20:00:17.586Z,81.20
2019-01-26T20:02:45.855Z,81.40
2019-01-26T20:05:19.800Z,81.30
2019-01-26T20:07:48.062Z,81.50
2019-01-26T20:10:16.622Z,81.40
2019-01-26T20:12:45.031Z,81.50
2019-01-26T20:15:15.746Z,81.40
2019-01-26T20:17:44.452Z,81.80
2019-01-26T20:20:39.707Z,81.30
2019-01-26T20:23:08.052Z,81.20
2019-01-26T20:25:36.315Z,81.20
2019-01-26T20:28:05.257Z,81.30
2019-01-26T20:30:33.774Z,81.20
2019-01-26T20:33:02.139Z,81.00
2019-01-26T20:35:30.467Z,81.10
2019-01-26T20:37:58.785Z,81.20
2019-01-26T20:40:27.056Z,80.90
2019-01-26T20:42:55.317Z,80.80
2019-01-26T20:45:25.939Z,80.90
2019-01-26T20:47:54.198Z,80.70
2019-01-26T20:50:22.495Z,80.90
2019-01-26T20:52:50.756Z,80.90
2019-01-26T20:55:19.046Z,80.80
2019-01-26T20:57:47.320Z,80.90
2019-01-26T21:00:24.179Z,81.00
2019-01-26T21:02:52.488Z,81.70
2019-01-26T21:05:20.796Z,81.00
2019-01-26T21:07:49.055Z,81.00
2019-01-26T21:10:19.371Z,80.80
2019-01-26T21:12:48.387Z,80.80
2019-01-26T21:15:16.646Z,80.80
2019-01-26T21:17:44.942Z,80.90
2019-01-26T21:20:15.944Z,80.80
2019-01-26T21:22:44.224Z,80.80
2019-01-26T21:25:13.331Z,80.90
2019-01-26T21:27:41.818Z,80.90
2019-01-26T21:30:19.027Z,81.00
2019-01-26T21:32:47.351Z,81.00
2019-01-26T21:35:15.956Z,81.00
2019-01-26T21:37:44.211Z,81.30
2019-01-26T21:40:15.815Z,81.00
2019-01-26T21:42:44.076Z,81.20
2019-01-26T21:45:14.184Z,81.10
2019-01-26T21:47:42.454Z,81.20
2019-01-26T21:50:13.355Z,81.20
2019-01-26T21:52:41.631Z,81.30
2019-01-26T21:55:29.348Z,81.20
2019-01-26T21:57:57.611Z,81.10
2019-01-26T22:00:28.744Z,81.20
2019-01-26T22:02:57.007Z,81.20
2019-01-26T22:05:25.282Z,81.10
2019-01-26T22:07:53.555Z,81.10
2019-01-26T22:10:23.690Z,81.10
2019-01-26T22:12:51.999Z,81.10
2019-01-26T22:15:21.457Z,81.10
2019-01-26T22:17:49.775Z,81.30
2019-01-26T22:20:42.084Z,81.20
2019-01-26T22:23:10.349Z,81.40
2019-01-26T22:25:38.629Z,81.40
2019-01-26T22:28:06.919Z,81.50
2019-01-26T22:30:35.560Z,81.40
2019-01-26T22:33:03.838Z,81.50
2019-01-26T22:35:32.105Z,81.40
2019-01-26T22:38:00.427Z,81.30
2019-01-26T22:40:30.972Z,81.40
2019-01-26T22:42:59.273Z,81.40
2019-01-26T22:45:27.613Z,81.40
2019-01-26T22:47:55.896Z,81.50
2019-01-26T22:50:25.794Z,81.60
2019-01-26T22:52:54.242Z,81.50
2019-01-26T22:55:24.202Z,81.60
2019-01-26T22:57:52.474Z,81.60
2019-01-26T23:00:49.334Z,81.70
2019-01-26T23:03:19.146Z,81.50
2019-01-26T23:05:59.272Z,81.60
2019-01-26T23:08:33.407Z,81.80
2019-01-26T23:11:13.653Z,81.90
2019-01-26T23:13:45.564Z,82.00
2019-01-26T23:17:00.200Z,81.90
2019-01-26T23:19:31.734Z,81.90
2019-01-26T23:22:18.225Z,82.00
2019-01-26T23:24:55.616Z,82.10
2019-01-26T23:27:39.052Z,82.10
2019-01-26T23:30:37.210Z,82.10
2019-01-26T23:33:05.473Z,82.30
2019-01-26T23:35:33.769Z,82.40
2019-01-26T23:38:02.055Z,82.40
2019-01-26T23:40:30.325Z,82.40
2019-01-26T23:42:58.645Z,82.30
2019-01-26T23:45:26.914Z,82.40
2019-01-26T23:47:55.178Z,82.50
2019-01-26T23:50:23.526Z,82.50
2019-01-26T23:52:51.839Z,82.50
2019-01-26T23:55:20.115Z,82.50
2019-01-26T23:57:48.387Z,82.50
